Time;durP1;ratioP1;P1;durP2;ratioP2;P2;SDS_P1;SDS_P2;PMS_P1;PMS_P2;Temp;Humidity;BMP_temperature;BMP_pressure;BME280_temperature;BME280_humidity;BME280_pressure;Samples;Min_cycle;Max_cycle;Signal;HPM_P1;HPM_P2
2022/10/11 00:01:32;;;;;;;2.63;0.70;;;17.40;99.90;;;;;;4941928;29;20922;-72
2022/10/11 00:04:05;;;;;;;3.05;0.80;;;17.30;99.90;;;;;;4932930;29;20723;-72
2022/10/11 00:06:36;;;;;;;5.90;0.90;;;17.30;99.90;;;;;;4943691;29;20202;-71
2022/10/11 00:09:07;;;;;;;2.40;0.80;;;17.50;99.90;;;;;;4938404;29;20190;-69
2022/10/11 00:11:38;;;;;;;2.13;0.88;;;17.60;99.90;;;;;;4942849;29;20189;-70
2022/10/11 00:14:10;;;;;;;1.08;0.88;;;17.70;99.90;;;;;;4947126;29;20563;-70
2022/10/11 00:16:43;;;;;;;3.45;1.00;;;18.10;99.90;;;;;;4944361;29;20202;-71
2022/10/11 00:19:16;;;;;;;3.33;0.70;;;18.50;99.90;;;;;;4942812;29;20208;-70
2022/10/11 00:21:47;;;;;;;3.53;0.82;;;18.60;99.90;;;;;;4939979;29;20205;-71
2022/10/11 00:24:18;;;;;;;2.03;0.80;;;18.50;99.90;;;;;;4941076;29;20225;-71
2022/10/11 00:26:48;;;;;;;1.48;0.80;;;18.40;99.90;;;;;;4942105;29;20560;-72
2022/10/11 00:29:19;;;;;;;2.80;0.77;;;18.50;99.90;;;;;;4941367;29;20192;-71
2022/10/11 00:31:50;;;;;;;2.65;0.80;;;18.50;99.90;;;;;;4945513;29;20201;-70
2022/10/11 00:34:23;;;;;;;2.65;0.82;;;18.40;99.90;;;;;;4946114;29;20193;-70
2022/10/11 00:36:54;;;;;;;3.20;0.80;;;18.40;99.90;;;;;;4942901;29;20237;-72
2022/10/11 00:39:25;;;;;;;1.70;0.80;;;18.50;99.90;;;;;;4944382;29;20190;-77
2022/10/11 00:41:56;;;;;;;1.88;0.80;;;18.40;99.90;;;;;;4945503;29;20200;-70
2022/10/11 00:44:30;;;;;;;1.95;0.80;;;18.50;99.90;;;;;;4948627;29;20201;-70
2022/10/11 00:47:03;;;;;;;2.35;0.80;;;18.50;99.90;;;;;;4943439;29;20192;-70
2022/10/11 00:49:39;;;;;;;1.67;0.80;;;18.40;99.90;;;;;;4945520;29;20233;-70
2022/10/11 00:52:15;;;;;;;1.02;0.60;;;18.40;99.90;;;;;;4948102;29;20202;-69
2022/10/11 00:54:48;;;;;;;3.35;0.80;;;18.40;99.90;;;;;;4946208;29;20204;-71
2022/10/11 00:57:23;;;;;;;3.35;0.77;;;18.40;99.90;;;;;;4944441;29;20204;-71
2022/10/11 00:59:56;;;;;;;3.05;0.90;;;18.40;99.90;;;;;;4948471;29;20268;-70
2022/10/11 01:02:29;;;;;;;2.15;0.70;;;18.30;99.90;;;;;;4943687;29;20213;-70
2022/10/11 01:05:02;;;;;;;2.03;0.93;;;18.30;99.90;;;;;;4935789;29;20284;-72
2022/10/11 01:07:33;;;;;;;2.67;0.77;;;18.30;99.90;;;;;;4934485;29;20212;-70
2022/10/11 01:10:04;;;;;;;1.70;0.80;;;18.50;99.90;;;;;;4935780;29;20201;-70
2022/10/11 01:12:35;;;;;;;3.15;0.80;;;18.50;99.90;;;;;;4934680;29;20198;-69
2022/10/11 01:15:15;;;;;;;2.05;0.75;;;18.70;99.90;;;;;;4934075;29;20191;-70
2022/10/11 01:17:52;;;;;;;1.88;0.70;;;19.00;99.90;;;;;;4936805;29;20202;-71
2022/10/11 01:20:47;;;;;;;0.93;0.73;;;19.20;99.90;;;;;;4936741;29;20200;-71
2022/10/11 01:23:58;;;;;;;1.42;0.57;;;19.30;99.90;;;;;;4934797;29;20312;-70
2022/10/11 01:26:56;;;;;;;3.30;0.70;;;19.50;99.90;;;;;;4929649;29;20201;-74
2022/10/11 01:29:42;;;;;;;1.77;0.80;;;19.50;99.90;;;;;;4929201;29;20208;-70
2022/10/11 01:32:19;;;;;;;1.50;0.70;;;19.90;99.90;;;;;;4936514;29;20574;-77
2022/10/11 01:34:57;;;;;;;2.40;0.90;;;19.90;99.90;;;;;;4937082;29;20588;-71
2022/10/11 01:37:33;;;;;;;2.97;0.77;;;19.90;99.90;;;;;;4939130;29;20602;-71
2022/10/11 01:40:11;;;;;;;1.90;0.70;;;20.00;99.90;;;;;;4935824;29;20205;-69
2022/10/11 01:42:43;;;;;;;2.00;0.73;;;19.90;99.90;;;;;;4929391;29;20221;-69
2022/10/11 01:45:17;;;;;;;3.05;0.82;;;19.70;99.90;;;;;;4936137;29;20197;-69
2022/10/11 01:48:02;;;;;;;1.35;0.70;;;19.60;99.90;;;;;;4936344;29;20212;-70
2022/10/11 01:50:50;;;;;;;2.60;0.85;;;19.50;99.90;;;;;;4935728;29;20266;-70
2022/10/11 01:53:56;;;;;;;2.22;0.70;;;19.40;99.90;;;;;;4935793;29;20208;-70
2022/10/11 01:56:42;;;;;;;1.58;0.75;;;19.30;99.90;;;;;;4935792;29;20208;-69
2022/10/11 01:59:33;;;;;;;3.92;0.65;;;19.20;99.90;;;;;;4935715;29;20614;-70
2022/10/11 02:02:14;;;;;;;2.25;0.70;;;19.10;99.90;;;;;;4931981;29;20197;-70
2022/10/11 02:04:51;;;;;;;2.47;0.70;;;19.30;99.90;;;;;;4929145;29;20218;-70
2022/10/11 02:07:27;;;;;;;1.45;0.68;;;19.50;99.90;;;;;;4935739;29;20729;-70
2022/10/11 02:10:05;;;;;;;3.63;1.02;;;19.70;99.90;;;;;;4935784;29;20275;-70
2022/10/11 02:12:41;;;;;;;1.40;0.70;;;19.70;99.90;;;;;;4935158;29;20312;-69
2022/10/11 02:15:15;;;;;;;1.05;0.60;;;19.60;99.90;;;;;;4935508;29;20416;-70
2022/10/11 02:17:49;;;;;;;3.45;1.25;;;19.60;99.90;;;;;;4927624;29;20194;-70
2022/10/11 02:20:25;;;;;;;1.27;0.70;;;19.80;99.90;;;;;;4925269;29;20199;-74
2022/10/11 02:23:07;;;;;;;2.05;0.70;;;20.00;99.90;;;;;;4935716;29;20579;-70
2022/10/11 02:25:39;;;;;;;2.53;0.70;;;20.00;99.90;;;;;;4935495;29;20208;-70
2022/10/11 02:28:16;;;;;;;1.92;0.80;;;20.10;99.90;;;;;;4935736;29;20553;-69
2022/10/11 02:30:51;;;;;;;2.35;0.80;;;20.10;99.90;;;;;;4928363;29;20185;-69
2022/10/11 02:33:25;;;;;;;2.67;0.60;;;20.00;99.90;;;;;;4927140;29;20211;-69
2022/10/11 02:36:07;;;;;;;1.77;0.80;;;19.80;99.90;;;;;;4938914;29;20232;-70
2022/10/11 02:38:46;;;;;;;1.85;0.68;;;19.80;99.90;;;;;;4936090;29;20200;-70
2022/10/11 02:41:23;;;;;;;1.45;0.60;;;19.70;99.90;;;;;;4935893;29;20253;-71
2022/10/11 02:43:59;;;;;;;4.57;1.10;;;19.70;99.90;;;;;;4928109;29;20217;-70
2022/10/11 02:46:31;;;;;;;1.40;0.80;;;19.70;99.90;;;;;;4935256;29;20193;-70
2022/10/11 02:49:03;;;;;;;1.45;0.60;;;19.80;99.90;;;;;;4934541;29;20198;-71
2022/10/11 02:51:37;;;;;;;1.27;0.65;;;19.80;99.90;;;;;;4935096;29;20198;-70
2022/10/11 02:54:08;;;;;;;2.75;1.00;;;19.70;99.90;;;;;;4935426;29;20200;-70
2022/10/11 02:56:39;;;;;;;1.98;0.82;;;19.70;99.90;;;;;;4935095;29;20194;-70
2022/10/11 02:59:10;;;;;;;2.40;0.50;;;19.60;99.90;;;;;;4935459;29;20194;-70
2022/10/11 03:01:41;;;;;;;2.17;0.80;;;19.50;99.90;;;;;;4934952;29;20638;-70
2022/10/11 03:04:11;;;;;;;2.08;0.77;;;19.50;99.90;;;;;;4935084;29;20214;-70
2022/10/11 03:06:44;;;;;;;1.27;0.70;;;19.80;99.90;;;;;;4934809;29;20189;-70
2022/10/11 03:09:15;;;;;;;3.00;0.70;;;19.90;99.90;;;;;;4933543;29;20204;-71
2022/10/11 03:11:46;;;;;;;2.63;0.77;;;19.90;99.90;;;;;;4933548;29;20193;-70
2022/10/11 03:14:17;;;;;;;0.90;0.65;;;19.80;99.90;;;;;;4935199;29;20203;-74
2022/10/11 03:16:48;;;;;;;2.45;0.60;;;19.60;99.90;;;;;;4937804;29;20205;-72
2022/10/11 03:19:19;;;;;;;2.58;0.63;;;19.50;99.90;;;;;;4935236;29;20201;-74
2022/10/11 03:21:52;;;;;;;1.98;0.68;;;19.60;99.90;;;;;;4934893;29;20284;-70
2022/10/11 03:24:23;;;;;;;2.97;0.60;;;19.70;99.90;;;;;;4935187;29;20239;-70
2022/10/11 03:26:54;;;;;;;1.85;0.63;;;19.80;99.90;;;;;;4936164;29;20206;-70
2022/10/11 03:29:25;;;;;;;2.25;0.70;;;19.90;99.90;;;;;;4937692;29;20216;-70
2022/10/11 03:31:56;;;;;;;1.75;0.60;;;20.00;99.90;;;;;;4938419;29;20194;-70
2022/10/11 03:34:27;;;;;;;1.50;0.70;;;20.10;99.90;;;;;;4937574;29;20198;-70
2022/10/11 03:37:00;;;;;;;4.72;0.88;;;20.30;99.90;;;;;;4938177;29;20233;-71
2022/10/11 03:39:30;;;;;;;1.10;0.80;;;20.30;99.90;;;;;;4937165;29;20666;-70
2022/10/11 03:42:01;;;;;;;1.42;0.70;;;20.10;99.90;;;;;;4935820;29;20204;-70
2022/10/11 03:44:33;;;;;;;1.92;0.80;;;19.90;99.90;;;;;;4936332;29;20225;-70
2022/10/11 03:47:04;;;;;;;2.17;0.55;;;19.70;99.90;;;;;;4936884;29;20213;-71
2022/10/11 03:49:35;;;;;;;2.08;0.80;;;19.60;99.90;;;;;;4937834;29;20194;-70
2022/10/11 03:52:07;;;;;;;0.93;0.60;;;19.50;99.90;;;;;;4936366;29;20297;-71
2022/10/11 03:54:38;;;;;;;3.63;0.85;;;19.40;99.90;;;;;;4936030;29;20251;-70
2022/10/11 03:57:09;;;;;;;2.17;0.60;;;19.40;99.90;;;;;;4929142;29;20204;-70
2022/10/11 03:59:40;;;;;;;5.30;0.82;;;19.50;99.90;;;;;;4932521;29;20241;-70
2022/10/11 04:02:11;;;;;;;1.83;1.27;;;19.40;99.90;;;;;;4937363;29;20212;-70
2022/10/11 04:04:43;;;;;;;2.83;0.88;;;19.30;99.90;;;;;;4936057;29;20221;-73
2022/10/11 04:07:16;;;;;;;3.63;0.80;;;19.30;99.90;;;;;;4937744;29;20578;-70
2022/10/11 04:09:47;;;;;;;2.03;1.08;;;19.30;99.90;;;;;;4936770;29;20201;-70
2022/10/11 04:12:18;;;;;;;3.90;0.57;;;19.40;99.90;;;;;;4937269;29;20198;-70
2022/10/11 04:14:49;;;;;;;2.35;0.60;;;19.40;99.90;;;;;;4936198;29;20197;-70
2022/10/11 04:17:20;;;;;;;3.05;0.85;;;19.30;99.90;;;;;;4937725;29;20194;-72
2022/10/11 04:19:50;;;;;;;0.93;0.60;;;19.30;99.90;;;;;;4937834;29;20194;-70
2022/10/11 04:22:23;;;;;;;1.90;0.73;;;19.40;99.90;;;;;;4937703;29;20196;-70
2022/10/11 04:24:54;;;;;;;3.00;0.63;;;19.60;99.90;;;;;;4936768;29;20224;-69
2022/10/11 04:27:25;;;;;;;1.05;0.60;;;19.60;99.90;;;;;;4936065;29;20561;-70
2022/10/11 04:29:56;;;;;;;3.75;0.75;;;19.50;99.90;;;;;;4930991;29;20205;-71
2022/10/11 04:32:27;;;;;;;2.00;0.80;;;19.40;99.90;;;;;;4933707;29;20190;-78
2022/10/11 04:34:58;;;;;;;5.45;1.08;;;19.30;99.90;;;;;;4930888;29;20244;-70
2022/10/11 04:37:31;;;;;;;4.32;0.80;;;19.20;99.90;;;;;;4937447;29;20229;-72
2022/10/11 04:40:02;;;;;;;2.35;0.70;;;19.10;99.90;;;;;;4935444;29;20206;-71
2022/10/11 04:42:33;;;;;;;3.20;0.70;;;19.10;99.90;;;;;;4937391;29;20669;-70
2022/10/11 04:45:04;;;;;;;1.80;0.75;;;19.00;99.90;;;;;;4942273;29;20221;-70
2022/10/11 04:47:35;;;;;;;2.20;0.90;;;18.90;99.90;;;;;;4944761;29;20185;-71
2022/10/11 04:50:06;;;;;;;2.03;0.70;;;18.90;99.90;;;;;;4939536;29;20206;-70
2022/10/11 04:52:39;;;;;;;2.22;0.80;;;18.90;99.90;;;;;;4943141;29;20194;-70
2022/10/11 04:55:11;;;;;;;1.10;0.70;;;18.90;99.90;;;;;;4941008;29;20206;-70
2022/10/11 04:57:42;;;;;;;2.35;0.70;;;18.80;99.90;;;;;;4938432;29;20200;-71
2022/10/11 05:00:14;;;;;;;3.55;0.93;;;18.70;99.90;;;;;;4933720;29;20908;-70
2022/10/11 05:02:45;;;;;;;2.58;0.88;;;18.80;99.90;;;;;;4940270;29;20576;-71
2022/10/11 05:05:16;;;;;;;1.90;0.70;;;18.70;99.90;;;;;;4942763;29;20217;-70
2022/10/11 05:07:49;;;;;;;4.88;0.95;;;18.70;99.90;;;;;;4947208;29;20726;-70
2022/10/11 05:10:20;;;;;;;2.20;0.90;;;18.60;99.90;;;;;;4939933;29;20199;-70
2022/10/11 05:12:50;;;;;;;2.38;0.80;;;18.70;99.90;;;;;;4938045;29;20205;-70
2022/10/11 05:15:21;;;;;;;1.88;0.60;;;18.60;99.90;;;;;;4936774;29;20206;-70
2022/10/11 05:17:52;;;;;;;0.93;0.57;;;18.60;99.90;;;;;;4941800;29;20208;-70
2022/10/11 05:20:23;;;;;;;1.77;0.80;;;18.60;99.90;;;;;;4940810;29;20189;-70
2022/10/11 05:22:56;;;;;;;1.67;0.80;;;18.60;99.90;;;;;;4932636;29;20670;-71
2022/10/11 05:25:27;;;;;;;1.98;0.85;;;18.60;99.90;;;;;;4942086;29;20217;-71
2022/10/11 05:27:58;;;;;;;2.70;0.80;;;18.60;99.90;;;;;;4939220;29;20201;-71
2022/10/11 05:30:29;;;;;;;0.65;0.60;;;18.60;99.90;;;;;;4937014;29;20194;-70
2022/10/11 05:33:00;;;;;;;2.35;0.70;;;18.70;99.90;;;;;;4937889;29;20548;-74
2022/10/11 05:35:31;;;;;;;1.85;0.70;;;18.80;99.90;;;;;;4939871;29;20570;-71
2022/10/11 05:38:04;;;;;;;1.23;0.80;;;18.90;99.90;;;;;;4901174;29;20196;-71
2022/10/11 05:40:34;;;;;;;2.78;0.80;;;19.00;99.90;;;;;;4900345;29;20211;-70
2022/10/11 05:43:06;;;;;;;3.47;0.85;;;19.00;99.90;;;;;;4900850;29;20205;-71
2022/10/11 05:45:42;;;;;;;3.20;0.80;;;19.00;99.90;;;;;;4900067;29;20709;-70
2022/10/11 05:48:13;;;;;;;0.60;0.60;;;18.90;99.90;;;;;;4906713;29;20825;-70
2022/10/11 05:50:44;;;;;;;1.00;0.70;;;18.90;99.90;;;;;;4906546;29;20207;-73
2022/10/11 05:53:17;;;;;;;1.80;0.65;;;18.80;99.90;;;;;;4902291;29;20203;-73
2022/10/11 05:55:48;;;;;;;1.60;0.80;;;18.90;99.90;;;;;;4899937;29;20203;-70
2022/10/11 05:58:19;;;;;;;1.90;0.90;;;18.80;99.90;;;;;;4905668;29;20191;-72
2022/10/11 06:00:50;;;;;;;1.85;0.80;;;18.80;99.90;;;;;;4898808;29;20203;-71
2022/10/11 06:03:20;;;;;;;1.90;0.80;;;18.80;99.90;;;;;;4907831;29;20558;-73
2022/10/11 06:05:51;;;;;;;2.78;0.75;;;18.70;99.90;;;;;;4896526;29;20247;-70
2022/10/11 06:08:24;;;;;;;3.95;0.80;;;18.70;99.90;;;;;;4902201;29;20195;-71
2022/10/11 06:10:55;;;;;;;1.25;0.60;;;18.60;99.90;;;;;;4900731;29;20198;-71
2022/10/11 06:13:26;;;;;;;1.23;0.70;;;18.60;99.90;;;;;;4902741;29;20531;-73
2022/10/11 06:15:57;;;;;;;1.00;0.70;;;18.60;99.90;;;;;;4896404;29;20218;-71
2022/10/11 06:18:28;;;;;;;1.55;0.82;;;18.50;99.90;;;;;;4903798;29;20190;-70
2022/10/11 06:21:01;;;;;;;1.73;0.80;;;18.50;99.90;;;;;;4902951;29;20682;-71
2022/10/11 06:23:33;;;;;;;2.20;0.60;;;18.40;99.90;;;;;;4906519;29;20214;-71
2022/10/11 06:26:06;;;;;;;5.28;0.82;;;18.40;99.90;;;;;;4903709;29;20690;-70
2022/10/11 06:28:38;;;;;;;0.82;0.80;;;18.40;99.90;;;;;;4907582;29;20237;-70
2022/10/11 06:31:09;;;;;;;3.70;1.00;;;18.40;99.90;;;;;;4910433;29;20198;-70
2022/10/11 06:33:40;;;;;;;3.53;0.80;;;18.40;99.90;;;;;;4905041;29;20206;-71
2022/10/11 06:36:14;;;;;;;0.73;0.70;;;18.40;99.90;;;;;;4907962;29;20732;-70
2022/10/11 06:38:47;;;;;;;1.80;0.80;;;18.40;99.90;;;;;;4944064;29;20200;-70
2022/10/11 06:41:20;;;;;;;2.38;0.77;;;18.40;99.90;;;;;;4940574;29;20701;-69
2022/10/11 06:43:51;;;;;;;2.03;0.60;;;18.30;99.90;;;;;;4933266;29;20201;-70
2022/10/11 06:46:23;;;;;;;1.20;0.60;;;18.30;99.90;;;;;;4939778;29;20689;-72
2022/10/11 06:48:55;;;;;;;1.73;0.90;;;18.20;99.90;;;;;;4941281;29;20204;-70
2022/10/11 06:51:28;;;;;;;2.70;0.73;;;18.20;99.90;;;;;;4928183;29;20209;-71
2022/10/11 06:54:02;;;;;;;2.03;0.68;;;18.10;99.90;;;;;;4935307;29;20197;-72
2022/10/11 06:56:33;;;;;;;3.45;0.70;;;18.00;99.90;;;;;;4942754;29;20220;-72
2022/10/11 06:59:04;;;;;;;1.85;0.82;;;18.00;99.90;;;;;;4938874;29;20204;-70
2022/10/11 07:01:35;;;;;;;0.90;0.70;;;18.00;99.90;;;;;;4940455;29;20212;-72
2022/10/11 07:04:06;;;;;;;1.77;0.73;;;18.00;99.90;;;;;;4941909;29;20200;-70
2022/10/11 07:06:40;;;;;;;2.67;0.88;;;17.90;99.90;;;;;;4942532;29;20202;-71
2022/10/11 07:09:13;;;;;;;1.48;0.80;;;17.80;99.90;;;;;;4947387;29;20195;-70
2022/10/11 07:11:45;;;;;;;2.25;0.98;;;17.70;99.90;;;;;;4944388;29;20201;-71
2022/10/11 07:14:16;;;;;;;4.60;0.95;;;17.70;99.90;;;;;;4942844;29;20189;-70
2022/10/11 07:16:47;;;;;;;0.75;0.63;;;17.60;99.90;;;;;;4944141;29;20213;-70
2022/10/11 07:19:18;;;;;;;0.93;0.80;;;17.60;99.90;;;;;;4940345;29;20197;-70
2022/10/11 07:21:49;;;;;;;1.98;0.73;;;17.60;99.90;;;;;;4935710;29;20204;-71
2022/10/11 07:24:21;;;;;;;2.30;0.80;;;17.60;99.90;;;;;;4942416;29;20225;-70
2022/10/11 07:26:52;;;;;;;2.20;0.90;;;17.50;99.90;;;;;;4936562;29;20204;-71
2022/10/11 07:29:23;;;;;;;1.55;0.80;;;17.40;99.90;;;;;;4939107;29;20198;-75
2022/10/11 07:31:55;;;;;;;2.85;1.10;;;17.40;99.90;;;;;;4943115;29;20594;-71
2022/10/11 07:34:26;;;;;;;2.20;1.00;;;17.30;99.90;;;;;;4943538;29;20260;-70
2022/10/11 07:36:57;;;;;;;2.25;1.00;;;17.30;99.90;;;;;;4937484;29;20229;-71
2022/10/11 07:39:30;;;;;;;3.28;1.10;;;17.30;99.90;;;;;;4944228;29;20225;-74
2022/10/11 07:42:01;;;;;;;4.75;0.93;;;17.20;99.90;;;;;;4942555;29;20220;-71
2022/10/11 07:44:33;;;;;;;2.67;1.30;;;17.20;99.90;;;;;;4944150;29;20201;-72
2022/10/11 07:47:03;;;;;;;3.33;0.93;;;17.10;99.90;;;;;;4942610;29;20205;-74
2022/10/11 07:49:34;;;;;;;2.03;1.15;;;17.10;99.90;;;;;;4941710;29;20206;-70
2022/10/11 07:52:05;;;;;;;2.92;0.90;;;17.00;99.90;;;;;;4941065;29;20704;-70
2022/10/11 07:54:38;;;;;;;1.50;0.82;;;17.00;99.90;;;;;;4942762;29;20201;-71
2022/10/11 07:57:09;;;;;;;4.40;1.00;;;16.90;99.90;;;;;;4942204;29;20194;-72
2022/10/11 07:59:40;;;;;;;1.08;0.90;;;16.90;99.90;;;;;;4943013;29;20703;-72
2022/10/11 08:02:13;;;;;;;2.00;1.02;;;16.80;99.90;;;;;;4944202;29;20232;-71
2022/10/11 08:04:43;;;;;;;3.17;1.00;;;16.80;99.90;;;;;;4939385;29;20258;-71
2022/10/11 08:07:14;;;;;;;1.88;0.90;;;16.70;99.90;;;;;;4944579;29;20204;-71
2022/10/11 08:09:47;;;;;;;2.53;1.00;;;16.70;99.90;;;;;;4937414;28;20603;-73
2022/10/11 08:12:18;;;;;;;1.20;0.77;;;16.70;99.90;;;;;;4941675;29;20285;-78
2022/10/11 08:14:49;;;;;;;1.10;0.80;;;16.60;99.90;;;;;;4941882;29;20220;-80
2022/10/11 08:17:20;;;;;;;3.67;0.90;;;16.60;99.90;;;;;;4933749;29;20208;-80
2022/10/11 08:19:51;;;;;;;4.47;0.93;;;16.60;99.90;;;;;;4935815;29;20193;-79
2022/10/11 08:22:22;;;;;;;2.40;0.95;;;16.60;99.90;;;;;;4938365;29;20201;-78
2022/10/11 08:24:55;;;;;;;1.85;0.90;;;16.50;99.90;;;;;;4944101;29;20699;-77
2022/10/11 08:27:26;;;;;;;1.40;0.80;;;16.50;99.90;;;;;;4944360;29;20201;-79
2022/10/11 08:29:57;;;;;;;3.42;1.05;;;16.50;99.90;;;;;;4939112;29;20565;-71
2022/10/11 08:32:28;;;;;;;3.78;1.30;;;16.40;99.90;;;;;;4934765;29;20197;-79
2022/10/11 08:34:59;;;;;;;3.70;1.20;;;16.40;99.90;;;;;;4944102;29;20225;-71
2022/10/11 08:37:30;;;;;;;2.58;1.10;;;16.30;99.90;;;;;;4945775;29;20232;-73
2022/10/11 08:40:04;;;;;;;1.95;1.02;;;16.30;99.90;;;;;;4942181;29;20212;-76
2022/10/11 08:42:38;;;;;;;4.10;1.10;;;16.30;99.90;;;;;;4937867;29;20614;-72
2022/10/11 08:45:15;;;;;;;3.45;1.33;;;16.20;99.90;;;;;;4938374;29;20221;-70
2022/10/11 08:47:48;;;;;;;3.30;1.30;;;16.20;99.90;;;;;;4940662;29;20298;-71
2022/10/11 08:50:21;;;;;;;4.72;1.33;;;16.20;99.90;;;;;;4944017;29;20198;-72
2022/10/11 08:52:56;;;;;;;3.58;1.13;;;16.10;99.90;;;;;;4938747;29;20190;-72
2022/10/11 08:55:42;;;;;;;2.35;1.17;;;16.10;99.90;;;;;;4937846;29;20205;-72
2022/10/11 08:58:18;;;;;;;1.98;1.33;;;16.00;99.90;;;;;;4937366;29;20204;-76
2022/10/11 09:00:51;;;;;;;2.30;1.10;;;15.90;99.90;;;;;;4946570;29;20200;-73
2022/10/11 09:03:36;;;;;;;2.95;1.20;;;15.90;99.90;;;;;;4933305;29;20202;-70
2022/10/11 09:06:20;;;;;;;5.38;1.40;;;15.90;99.90;;;;;;4942996;29;20238;-78
2022/10/11 09:09:15;;;;;;;3.58;1.23;;;15.80;99.90;;;;;;4933452;29;20197;-74
2022/10/11 09:11:59;;;;;;;5.32;1.20;;;15.80;99.90;;;;;;4943788;29;20829;-72
2022/10/11 09:14:59;;;;;;;2.30;1.20;;;15.70;99.90;;;;;;4938123;29;20205;-72
2022/10/11 09:17:52;;;;;;;4.65;1.27;;;15.70;99.90;;;;;;4940327;29;20194;-71
2022/10/11 09:20:37;;;;;;;3.03;1.27;;;15.70;99.90;;;;;;4941535;29;20201;-71
2022/10/11 09:23:23;;;;;;;2.85;1.20;;;15.60;99.90;;;;;;4942672;29;20202;-73
2022/10/11 09:26:00;;;;;;;3.35;1.40;;;15.50;99.90;;;;;;4944796;29;20220;-71
2022/10/11 09:28:47;;;;;;;2.13;1.20;;;15.50;99.90;;;;;;4943915;29;20198;-75
2022/10/11 09:31:25;;;;;;;3.03;1.50;;;15.50;99.90;;;;;;4948388;29;20209;-75
2022/10/11 09:33:57;;;;;;;2.50;1.50;;;15.40;99.90;;;;;;4936300;29;20201;-75
2022/10/11 09:36:31;;;;;;;3.08;1.50;;;15.40;99.90;;;;;;4943292;29;20598;-71
2022/10/11 09:39:09;;;;;;;1.92;1.35;;;15.40;99.90;;;;;;4940418;29;20201;-73
2022/10/11 09:41:49;;;;;;;4.05;1.40;;;15.30;99.90;;;;;;4936305;29;20197;-73
2022/10/11 09:44:25;;;;;;;3.75;1.42;;;15.30;99.90;;;;;;4941343;29;20197;-70
2022/10/11 09:46:57;;;;;;;5.00;1.20;;;15.20;99.90;;;;;;4937602;29;20227;-70
2022/10/11 09:49:33;;;;;;;2.53;1.30;;;15.20;99.90;;;;;;4933793;29;20210;-72
2022/10/11 09:52:06;;;;;;;2.50;1.27;;;15.20;99.90;;;;;;4934122;29;20193;-75
2022/10/11 09:54:46;;;;;;;2.67;1.30;;;15.20;99.90;;;;;;4939086;29;20204;-76
2022/10/11 09:57:25;;;;;;;4.22;1.50;;;15.10;99.90;;;;;;4933680;29;20215;-77
2022/10/11 10:00:07;;;;;;;3.25;1.25;;;15.10;99.90;;;;;;4931842;29;20198;-75
2022/10/11 10:02:48;;;;;;;3.25;1.30;;;15.10;99.90;;;;;;4940539;29;20200;-78
2022/10/11 10:05:22;;;;;;;2.53;1.20;;;15.10;99.90;;;;;;4939096;29;20702;-74
2022/10/11 10:08:21;;;;;;;3.80;1.27;;;15.10;99.90;;;;;;4935249;29;20193;-77
2022/10/11 10:11:01;;;;;;;3.17;1.15;;;15.00;99.90;;;;;;4942327;29;20652;-77
2022/10/11 10:13:43;;;;;;;1.92;1.20;;;15.00;99.90;;;;;;4939524;29;20198;-77
2022/10/11 10:16:26;;;;;;;4.15;1.40;;;15.00;99.90;;;;;;4934398;29;20200;-72
2022/10/11 10:18:59;;;;;;;1.42;1.13;;;15.00;99.90;;;;;;4938055;29;20206;-76
2022/10/11 10:21:32;;;;;;;4.18;1.30;;;15.00;99.90;;;;;;4937008;29;20210;-77
2022/10/11 10:24:06;;;;;;;3.63;1.40;;;14.90;99.90;;;;;;4939864;29;20194;-77
2022/10/11 10:26:38;;;;;;;3.95;1.38;;;14.90;99.90;;;;;;4942260;29;20267;-78
2022/10/11 10:29:19;;;;;;;3.90;1.10;;;14.90;99.90;;;;;;4934866;29;20276;-75
2022/10/11 10:32:00;;;;;;;3.20;1.48;;;14.90;99.90;;;;;;4945286;29;20562;-79
2022/10/11 10:34:33;;;;;;;3.28;1.20;;;14.90;99.90;;;;;;4938659;28;20228;-78
2022/10/11 10:37:11;;;;;;;1.83;1.10;;;14.90;99.90;;;;;;4937397;29;20700;-77
2022/10/11 10:39:46;;;;;;;2.60;1.13;;;14.80;99.90;;;;;;4937953;29;20679;-76
2022/10/11 10:42:18;;;;;;;4.45;1.40;;;14.90;99.90;;;;;;4938129;29;20228;-79
2022/10/11 10:44:53;;;;;;;3.10;1.35;;;14.80;99.90;;;;;;4937541;29;20653;-75
2022/10/11 10:47:44;;;;;;;1.95;1.35;;;14.80;99.90;;;;;;4936498;29;20221;-77
2022/10/11 10:50:20;;;;;;;6.07;1.50;;;14.80;99.90;;;;;;4930712;29;20205;-78
2022/10/11 10:52:58;;;;;;;7.32;1.77;;;14.80;99.90;;;;;;4939205;29;20194;-78
2022/10/11 10:55:35;;;;;;;3.80;1.50;;;14.80;99.90;;;;;;4934789;29;20201;-77
2022/10/11 10:58:18;;;;;;;3.53;1.40;;;14.70;99.90;;;;;;4935284;29;20209;-79
2022/10/11 11:00:51;;;;;;;4.28;1.42;;;14.70;99.90;;;;;;4940578;29;20192;-78
2022/10/11 11:03:32;;;;;;;4.00;1.45;;;14.70;99.90;;;;;;4938320;29;20193;-79
2022/10/11 11:06:05;;;;;;;6.45;1.50;;;14.70;99.90;;;;;;4933504;29;20237;-77
2022/10/11 11:08:59;;;;;;;4.50;1.58;;;14.70;99.90;;;;;;4940875;29;20208;-79
2022/10/11 11:11:44;;;;;;;3.30;1.70;;;14.60;99.90;;;;;;4941109;29;20193;-79
2022/10/11 11:14:28;;;;;;;3.63;1.48;;;14.70;99.90;;;;;;4937387;29;20205;-71
2022/10/11 11:17:07;;;;;;;2.60;1.30;;;14.70;99.90;;;;;;4936712;29;20194;-79
2022/10/11 11:19:54;;;;;;;3.78;1.40;;;14.70;99.90;;;;;;4939321;29;20233;-72
2022/10/11 11:22:33;;;;;;;4.43;1.42;;;14.80;99.90;;;;;;4932854;29;20198;-72
2022/10/11 11:25:14;;;;;;;2.65;1.40;;;14.80;99.90;;;;;;4933792;29;20221;-74
2022/10/11 11:27:57;;;;;;;3.78;1.30;;;14.90;99.90;;;;;;4933916;29;20209;-70
2022/10/11 11:30:38;;;;;;;2.20;1.50;;;14.90;99.90;;;;;;4934650;29;20193;-72
2022/10/11 11:33:21;;;;;;;6.70;1.45;;;14.90;99.90;;;;;;4938541;29;20530;-72
2022/10/11 11:35:55;;;;;;;5.63;1.30;;;14.90;99.90;;;;;;4931901;28;20306;-72
2022/10/11 11:38:31;;;;;;;2.97;1.15;;;15.00;99.90;;;;;;4928234;29;20605;-70
2022/10/11 11:41:04;;;;;;;2.60;1.20;;;15.00;99.90;;;;;;4933526;29;20193;-70
2022/10/11 11:43:39;;;;;;;4.38;1.30;;;15.00;99.90;;;;;;4928938;29;20642;-74
2022/10/11 11:46:15;;;;;;;3.08;1.40;;;15.10;99.90;;;;;;4933682;29;20310;-71
2022/10/11 11:48:46;;;;;;;4.40;1.60;;;15.10;99.90;;;;;;4938788;29;20628;-72
2022/10/11 11:51:22;;;;;;;2.53;1.13;;;15.10;99.90;;;;;;4932296;29;20414;-70
2022/10/11 11:53:58;;;;;;;4.22;1.15;;;15.10;99.90;;;;;;4933423;29;20203;-70
2022/10/11 11:56:33;;;;;;;1.63;1.10;;;15.10;99.90;;;;;;4930553;29;20217;-72
2022/10/11 11:59:12;;;;;;;3.40;1.00;;;15.10;99.90;;;;;;4938484;29;20276;-76
2022/10/11 12:01:48;;;;;;;2.58;1.20;;;15.10;99.90;;;;;;4936989;29;20194;-73
2022/10/11 12:04:28;;;;;;;1.73;1.02;;;15.10;99.90;;;;;;4937264;29;20201;-76
2022/10/11 12:07:07;;;;;;;2.88;1.20;;;15.20;99.90;;;;;;4937509;29;20689;-72
2022/10/11 12:09:40;;;;;;;3.75;1.13;;;15.10;99.90;;;;;;4933041;29;20665;-77
2022/10/11 12:12:27;;;;;;;2.72;0.98;;;15.20;99.90;;;;;;4936822;29;20234;-76
2022/10/11 12:15:17;;;;;;;3.17;1.13;;;15.20;99.90;;;;;;4933260;29;20204;-76
2022/10/11 12:18:04;;;;;;;3.55;1.10;;;15.20;99.90;;;;;;4934865;29;20228;-72
2022/10/11 12:20:39;;;;;;;2.22;0.93;;;15.20;99.90;;;;;;4935781;29;20564;-78
2022/10/11 12:23:47;;;;;;;2.60;0.90;;;15.20;99.90;;;;;;4930628;29;20206;-74
2022/10/11 12:26:46;;;;;;;5.75;1.00;;;15.20;99.90;;;;;;4935699;29;20226;-77
2022/10/11 12:29:46;;;;;;;2.72;0.95;;;15.20;99.90;;;;;;4931629;29;20265;-72
2022/10/11 12:32:51;;;;;;;2.47;1.00;;;15.20;99.90;;;;;;4936794;29;20676;-79
2022/10/11 12:35:41;;;;;;;4.25;0.80;;;15.20;99.90;;;;;;4933128;29;20229;-77
2022/10/11 12:38:27;;;;;;;6.07;1.00;;;15.20;99.90;;;;;;4935984;29;20201;-73
2022/10/11 12:41:00;;;;;;;5.88;1.00;;;15.20;99.90;;;;;;4935790;29;20249;-78
2022/10/11 12:43:37;;;;;;;5.80;1.10;;;15.20;99.90;;;;;;4933943;29;20614;-71
2022/10/11 12:46:40;;;;;;;1.38;0.80;;;15.20;99.90;;;;;;4932217;29;20212;-73
2022/10/11 12:49:31;;;;;;;4.55;0.90;;;15.20;99.90;;;;;;4932688;29;20205;-76
2022/10/11 12:52:03;;;;;;;2.53;0.80;;;15.20;99.90;;;;;;4933564;29;20198;-76
2022/10/11 12:55:13;;;;;;;2.03;0.80;;;15.20;99.90;;;;;;4936306;29;20197;-76
2022/10/11 12:58:13;;;;;;;4.40;1.02;;;15.20;99.90;;;;;;4935121;29;20285;-72
2022/10/11 13:01:23;;;;;;;4.07;1.02;;;15.10;99.90;;;;;;4934897;29;20206;-72
2022/10/11 13:04:08;;;;;;;3.13;1.00;;;15.10;99.90;;;;;;4930914;29;20201;-72
2022/10/11 13:06:46;;;;;;;2.38;0.93;;;15.10;99.90;;;;;;4927901;29;20673;-77
2022/10/11 13:09:24;;;;;;;3.28;1.15;;;15.10;99.90;;;;;;4933122;29;20198;-78
2022/10/11 13:12:07;;;;;;;2.70;0.88;;;15.10;99.90;;;;;;4934750;29;20213;-77
2022/10/11 13:14:44;;;;;;;2.58;1.20;;;15.10;99.90;;;;;;4933270;29;20209;-75
2022/10/11 13:17:21;;;;;;;3.67;0.95;;;15.10;99.90;;;;;;4932728;29;20197;-79
2022/10/11 13:20:02;;;;;;;5.18;0.90;;;15.00;99.90;;;;;;4933614;29;20213;-74
2022/10/11 13:22:39;;;;;;;4.88;0.88;;;15.00;99.90;;;;;;4935807;29;20194;-79
2022/10/11 13:25:11;;;;;;;1.67;0.80;;;14.90;99.90;;;;;;4935674;29;20197;-80
2022/10/11 13:27:44;;;;;;;3.20;0.85;;;14.90;99.90;;;;;;4935686;29;20221;-79
2022/10/11 13:30:21;;;;;;;5.80;0.77;;;14.80;99.90;;;;;;4934470;29;20213;-78
2022/10/11 13:32:52;;;;;;;3.58;1.00;;;14.90;99.90;;;;;;4935541;29;20193;-77